sensor_id;sensor_type;location;lat;lon;timestamp;pressure;altitude;pressure_sealevel;temperature;humidity
67727;BME280;54525;55.680;37.540;2022-09-01T00:01:20;98731.88;;;19.32;45.10
67727;BME280;54525;55.680;37.540;2022-09-01T00:03:49;98735.16;;;19.34;45.02
67727;BME280;54525;55.680;37.540;2022-09-01T00:06:18;98732.88;;;19.31;45.01
67727;BME280;54525;55.680;37.540;2022-09-01T00:08:52;98731.03;;;19.31;44.94
67727;BME280;54525;55.680;37.540;2022-09-01T00:11:19;98729.19;;;19.32;44.95
67727;BME280;54525;55.680;37.540;2022-09-01T00:13:45;98729.38;;;19.30;44.92
67727;BME280;54525;55.680;37.540;2022-09-01T00:16:10;98729.31;;;19.24;45.29
67727;BME280;54525;55.680;37.540;2022-09-01T00:18:39;98726.66;;;19.24;44.96
67727;BME280;54525;55.680;37.540;2022-09-01T00:21:08;98725.19;;;19.21;45.32
67727;BME280;54525;55.680;37.540;2022-09-01T00:23:33;98732.81;;;19.17;44.99
67727;BME280;54525;55.680;37.540;2022-09-01T00:25:59;98741.41;;;19.13;45.15
67727;BME280;54525;55.680;37.540;2022-09-01T00:28:24;98731.69;;;19.05;45.23
67727;BME280;54525;55.680;37.540;2022-09-01T00:30:50;98732.53;;;19.05;45.47
67727;BME280;54525;55.680;37.540;2022-09-01T00:33:16;98734.81;;;19.09;45.39
67727;BME280;54525;55.680;37.540;2022-09-01T00:35:41;98735.00;;;19.07;45.47
67727;BME280;54525;55.680;37.540;2022-09-01T00:38:07;98734.78;;;19.02;45.69
67727;BME280;54525;55.680;37.540;2022-09-01T00:40:32;98738.69;;;19.06;45.43
67727;BME280;54525;55.680;37.540;2022-09-01T00:42:58;98734.34;;;19.05;45.40
67727;BME280;54525;55.680;37.540;2022-09-01T00:45:24;98732.91;;;19.02;45.45
67727;BME280;54525;55.680;37.540;2022-09-01T00:47:50;98735.59;;;19.02;45.28
67727;BME280;54525;55.680;37.540;2022-09-01T00:50:17;98735.41;;;19.04;45.40
67727;BME280;54525;55.680;37.540;2022-09-01T00:52:49;98728.78;;;19.00;45.26
67727;BME280;54525;55.680;37.540;2022-09-01T00:55:28;98734.13;;;19.00;45.41
67727;BME280;54525;55.680;37.540;2022-09-01T00:57:55;98736.56;;;18.95;45.34
67727;BME280;54525;55.680;37.540;2022-09-01T01:00:24;98735.25;;;18.90;45.55
67727;BME280;54525;55.680;37.540;2022-09-01T01:02:50;98742.44;;;18.83;45.42
67727;BME280;54525;55.680;37.540;2022-09-01T01:05:30;98748.38;;;18.79;45.71
67727;BME280;54525;55.680;37.540;2022-09-01T01:07:57;98738.34;;;18.87;45.72
67727;BME280;54525;55.680;37.540;2022-09-01T01:10:24;98744.47;;;19.03;45.66
67727;BME280;54525;55.680;37.540;2022-09-01T01:12:51;98735.28;;;19.19;45.58
67727;BME280;54525;55.680;37.540;2022-09-01T01:15:18;98733.06;;;19.29;45.54
67727;BME280;54525;55.680;37.540;2022-09-01T01:17:44;98738.94;;;19.40;44.96
67727;BME280;54525;55.680;37.540;2022-09-01T01:20:11;98735.25;;;19.47;45.19
67727;BME280;54525;55.680;37.540;2022-09-01T01:23:05;98737.13;;;19.54;44.76
67727;BME280;54525;55.680;37.540;2022-09-01T01:25:48;98728.69;;;19.57;45.02
67727;BME280;54525;55.680;37.540;2022-09-01T01:28:21;98729.09;;;19.60;44.85
67727;BME280;54525;55.680;37.540;2022-09-01T01:30:54;98725.81;;;19.65;44.78
67727;BME280;54525;55.680;37.540;2022-09-01T01:33:23;98727.28;;;19.67;44.84
67727;BME280;54525;55.680;37.540;2022-09-01T01:35:50;98729.56;;;19.71;44.67
67727;BME280;54525;55.680;37.540;2022-09-01T01:38:18;98730.19;;;19.73;44.74
67727;BME280;54525;55.680;37.540;2022-09-01T01:40:45;98720.94;;;19.75;44.38
67727;BME280;54525;55.680;37.540;2022-09-01T01:43:10;98721.75;;;19.76;44.31
67727;BME280;54525;55.680;37.540;2022-09-01T01:45:48;98721.56;;;19.77;44.46
67727;BME280;54525;55.680;37.540;2022-09-01T01:48:17;98715.34;;;19.77;44.44
67727;BME280;54525;55.680;37.540;2022-09-01T01:50:47;98720.94;;;19.75;44.26
67727;BME280;54525;55.680;37.540;2022-09-01T01:53:13;98727.31;;;19.74;44.78
67727;BME280;54525;55.680;37.540;2022-09-01T01:55:41;98717.63;;;19.73;44.12
67727;BME280;54525;55.680;37.540;2022-09-01T01:58:08;98721.94;;;19.74;44.50
67727;BME280;54525;55.680;37.540;2022-09-01T02:00:37;98716.75;;;19.73;44.24
67727;BME280;54525;55.680;37.540;2022-09-01T02:03:03;98725.03;;;19.71;44.28
67727;BME280;54525;55.680;37.540;2022-09-01T02:05:32;98729.16;;;19.74;44.37
67727;BME280;54525;55.680;37.540;2022-09-01T02:08:07;98726.94;;;19.77;44.38
67727;BME280;54525;55.680;37.540;2022-09-01T02:10:38;98730.44;;;19.78;44.30
67727;BME280;54525;55.680;37.540;2022-09-01T02:13:05;98728.75;;;19.77;44.14
67727;BME280;54525;55.680;37.540;2022-09-01T02:15:39;98730.63;;;19.76;44.30
67727;BME280;54525;55.680;37.540;2022-09-01T02:18:20;98722.97;;;19.73;43.98
67727;BME280;54525;55.680;37.540;2022-09-01T02:20:48;98726.69;;;19.72;44.35
67727;BME280;54525;55.680;37.540;2022-09-01T02:23:15;98724.00;;;19.72;43.93
67727;BME280;54525;55.680;37.540;2022-09-01T02:25:43;98712.63;;;19.70;44.07
67727;BME280;54525;55.680;37.540;2022-09-01T02:28:14;98725.03;;;19.71;44.11
67727;BME280;54525;55.680;37.540;2022-09-01T02:30:47;98723.16;;;19.72;43.99
67727;BME280;54525;55.680;37.540;2022-09-01T02:33:25;98731.03;;;19.73;43.86
67727;BME280;54525;55.680;37.540;2022-09-01T02:36:05;98727.31;;;19.74;43.70
67727;BME280;54525;55.680;37.540;2022-09-01T02:38:31;98734.75;;;19.72;44.14
67727;BME280;54525;55.680;37.540;2022-09-01T02:40:59;98720.91;;;19.69;44.33
67727;BME280;54525;55.680;37.540;2022-09-01T02:43:27;98727.09;;;19.69;43.97
67727;BME280;54525;55.680;37.540;2022-09-01T02:45:55;98726.44;;;19.67;44.20
67727;BME280;54525;55.680;37.540;2022-09-01T02:48:26;98734.50;;;19.67;44.22
67727;BME280;54525;55.680;37.540;2022-09-01T02:50:53;98721.09;;;19.67;44.01
67727;BME280;54525;55.680;37.540;2022-09-01T02:53:24;98723.78;;;19.67;43.95
67727;BME280;54525;55.680;37.540;2022-09-01T02:55:49;98718.81;;;19.71;43.83
67727;BME280;54525;55.680;37.540;2022-09-01T02:58:16;98723.38;;;19.70;43.59
67727;BME280;54525;55.680;37.540;2022-09-01T03:00:45;98720.91;;;19.69;43.90
67727;BME280;54525;55.680;37.540;2022-09-01T03:03:11;98723.59;;;19.69;43.94
67727;BME280;54525;55.680;37.540;2022-09-01T03:05:38;98717.78;;;19.72;43.79
67727;BME280;54525;55.680;37.540;2022-09-01T03:08:06;98722.34;;;19.71;44.05
67727;BME280;54525;55.680;37.540;2022-09-01T03:10:37;98723.59;;;19.69;44.17
67727;BME280;54525;55.680;37.540;2022-09-01T03:13:09;98723.38;;;19.70;44.19
67727;BME280;54525;55.680;37.540;2022-09-01T03:15:35;98718.00;;;19.70;43.89
67727;BME280;54525;55.680;37.540;2022-09-01T03:18:03;98719.44;;;19.73;43.84
67727;BME280;54525;55.680;37.540;2022-09-01T03:20:31;98720.94;;;19.75;43.83
67727;BME280;54525;55.680;37.540;2022-09-01T03:23:02;98727.09;;;19.76;43.63
67727;BME280;54525;55.680;37.540;2022-09-01T03:25:30;98722.59;;;19.76;43.73
67727;BME280;54525;55.680;37.540;2022-09-01T03:27:57;98722.75;;;19.75;43.80
67727;BME280;54525;55.680;37.540;2022-09-01T03:30:24;98726.28;;;19.75;43.67
67727;BME280;54525;55.680;37.540;2022-09-01T03:32:51;98718.41;;;19.74;43.74
67727;BME280;54525;55.680;37.540;2022-09-01T03:35:16;98726.88;;;19.71;43.81
67727;BME280;54525;55.680;37.540;2022-09-01T03:37:42;98724.00;;;19.72;43.81
67727;BME280;54525;55.680;37.540;2022-09-01T03:40:10;98727.50;;;19.73;43.78
67727;BME280;54525;55.680;37.540;2022-09-01T03:42:36;98732.69;;;19.74;43.63
67727;BME280;54525;55.680;37.540;2022-09-01T03:45:04;98737.84;;;19.76;43.61
67727;BME280;54525;55.680;37.540;2022-09-01T03:47:38;98730.44;;;19.78;43.51
67727;BME280;54525;55.680;37.540;2022-09-01T03:50:06;98736.41;;;19.80;43.30
67727;BME280;54525;55.680;37.540;2022-09-01T03:52:36;98726.31;;;19.82;43.45
67727;BME280;54525;55.680;37.540;2022-09-01T03:55:03;98731.09;;;19.87;43.29
67727;BME280;54525;55.680;37.540;2022-09-01T03:57:29;98736.47;;;19.87;43.07
67727;BME280;54525;55.680;37.540;2022-09-01T03:59:55;98737.09;;;19.89;43.24
67727;BME280;54525;55.680;37.540;2022-09-01T04:02:21;98734.22;;;19.90;42.84
67727;BME280;54525;55.680;37.540;2022-09-01T04:04:47;98734.63;;;19.94;42.72
67727;BME280;54525;55.680;37.540;2022-09-01T04:07:12;98734.63;;;19.94;42.89
67727;BME280;54525;55.680;37.540;2022-09-01T04:09:38;98728.03;;;19.96;42.77
67727;BME280;54525;55.680;37.540;2022-09-01T04:12:04;98733.19;;;19.98;42.93
67727;BME280;54525;55.680;37.540;2022-09-01T04:14:33;98717.72;;;20.00;42.95
67727;BME280;54525;55.680;37.540;2022-09-01T04:16:59;98732.81;;;20.01;42.78
67727;BME280;54525;55.680;37.540;2022-09-01T04:19:43;98739.41;;;19.99;42.84
67727;BME280;54525;55.680;37.540;2022-09-01T04:22:09;98730.50;;;19.98;42.64
67727;BME280;54525;55.680;37.540;2022-09-01T04:24:38;98726.81;;;19.99;43.10
67727;BME280;54525;55.680;37.540;2022-09-01T04:27:06;98728.84;;;19.97;42.79
67727;BME280;54525;55.680;37.540;2022-09-01T04:29:33;98729.88;;;19.96;42.91
67727;BME280;54525;55.680;37.540;2022-09-01T04:32:05;98736.28;;;19.95;42.68
67727;BME280;54525;55.680;37.540;2022-09-01T04:34:33;98732.97;;;19.93;42.48
67727;BME280;54525;55.680;37.540;2022-09-01T04:37:23;98732.50;;;19.82;42.54
67727;BME280;54525;55.680;37.540;2022-09-01T04:39:52;98734.16;;;19.83;42.71
67727;BME280;54525;55.680;37.540;2022-09-01T04:42:19;98737.06;;;19.82;42.88
67727;BME280;54525;55.680;37.540;2022-09-01T04:44:47;98735.00;;;19.84;42.63
67727;BME280;54525;55.680;37.540;2022-09-01T04:47:13;98731.09;;;19.87;42.33
67727;BME280;54525;55.680;37.540;2022-09-01T04:49:45;98732.75;;;19.88;42.26
67727;BME280;54525;55.680;37.540;2022-09-01T04:52:12;98732.09;;;19.86;42.65
67727;BME280;54525;55.680;37.540;2022-09-01T04:54:38;98741.84;;;19.87;42.70
67727;BME280;54525;55.680;37.540;2022-09-01T04:57:04;98739.97;;;19.87;42.83
67727;BME280;54525;55.680;37.540;2022-09-01T04:59:33;98738.28;;;19.86;42.46
67727;BME280;54525;55.680;37.540;2022-09-01T05:01:59;98740.97;;;19.86;42.26
67727;BME280;54525;55.680;37.540;2022-09-01T05:04:28;98731.28;;;19.85;41.93
67727;BME280;54525;55.680;37.540;2022-09-01T05:06:58;98743.50;;;19.88;42.00
67727;BME280;54525;55.680;37.540;2022-09-01T05:09:31;98739.97;;;19.87;42.29
67727;BME280;54525;55.680;37.540;2022-09-01T05:12:00;98743.66;;;19.86;42.35
67727;BME280;54525;55.680;37.540;2022-09-01T05:14:44;98740.59;;;19.89;42.35
67727;BME280;54525;55.680;37.540;2022-09-01T05:17:12;98748.47;;;19.91;42.44
67727;BME280;54525;55.680;37.540;2022-09-01T05:19:44;98748.25;;;19.92;42.00
67727;BME280;54525;55.680;37.540;2022-09-01T05:22:12;98752.59;;;19.93;42.01
67727;BME280;54525;55.680;37.540;2022-09-01T05:24:38;98756.09;;;19.94;41.79
67727;BME280;54525;55.680;37.540;2022-09-01T05:27:05;98748.91;;;19.94;41.96
67727;BME280;54525;55.680;37.540;2022-09-01T05:29:31;98753.41;;;19.94;41.92
67727;BME280;54525;55.680;37.540;2022-09-01T05:31:57;98752.81;;;19.92;42.09
67727;BME280;54525;55.680;37.540;2022-09-01T05:34:24;98753.63;;;19.92;42.28
67727;BME280;54525;55.680;37.540;2022-09-01T05:36:56;98751.75;;;19.93;42.25
67727;BME280;54525;55.680;37.540;2022-09-01T05:39:22;98754.66;;;19.91;42.08
67727;BME280;54525;55.680;37.540;2022-09-01T05:41:47;98755.50;;;19.92;41.92
67727;BME280;54525;55.680;37.540;2022-09-01T05:44:14;98751.97;;;19.91;42.20
67727;BME280;54525;55.680;37.540;2022-09-01T05:46:40;98750.31;;;19.90;41.68
67727;BME280;54525;55.680;37.540;2022-09-01T05:49:08;98752.81;;;19.92;41.73
67727;BME280;54525;55.680;37.540;2022-09-01T05:51:40;98751.97;;;19.91;41.66
67727;BME280;54525;55.680;37.540;2022-09-01T05:54:07;98754.88;;;19.90;41.52
67727;BME280;54525;55.680;37.540;2022-09-01T05:56:34;98743.91;;;19.91;41.70
67727;BME280;54525;55.680;37.540;2022-09-01T05:59:02;98738.56;;;19.91;41.69
67727;BME280;54525;55.680;37.540;2022-09-01T06:01:28;98744.56;;;19.93;41.79
67727;BME280;54525;55.680;37.540;2022-09-01T06:04:00;98750.34;;;19.97;41.54
67727;BME280;54525;55.680;37.540;2022-09-01T06:06:34;98751.19;;;19.97;41.24
67727;BME280;54525;55.680;37.540;2022-09-01T06:09:06;98753.03;;;19.97;41.32
67727;BME280;54525;55.680;37.540;2022-09-01T06:11:32;98751.38;;;19.96;41.34
67727;BME280;54525;55.680;37.540;2022-09-01T06:13:59;98747.03;;;19.95;41.12
67727;BME280;54525;55.680;37.540;2022-09-01T06:16:26;98753.41;;;19.94;40.96
67727;BME280;54525;55.680;37.540;2022-09-01T06:18:54;98743.72;;;19.93;41.01
67727;BME280;54525;55.680;37.540;2022-09-01T06:21:21;98751.59;;;19.94;40.80
67727;BME280;54525;55.680;37.540;2022-09-01T06:23:49;98757.75;;;19.95;40.73
67727;BME280;54525;55.680;37.540;2022-09-01T06:26:37;98743.72;;;19.93;40.60
67727;BME280;54525;55.680;37.540;2022-09-01T06:29:07;98744.13;;;19.90;40.67
67727;BME280;54525;55.680;37.540;2022-09-01T06:31:35;98746.19;;;19.88;40.92
67727;BME280;54525;55.680;37.540;2022-09-01T06:34:06;98744.13;;;19.90;40.95
67727;BME280;54525;55.680;37.540;2022-09-01T06:36:35;98743.72;;;19.93;40.77
67727;BME280;54525;55.680;37.540;2022-09-01T06:39:02;98746.84;;;19.96;41.17
67727;BME280;54525;55.680;37.540;2022-09-01T06:41:28;98745.00;;;20.04;41.23
67727;BME280;54525;55.680;37.540;2022-09-01T06:43:55;98750.78;;;20.07;40.78
67727;BME280;54525;55.680;37.540;2022-09-01T06:46:22;98748.09;;;20.07;40.80
67727;BME280;54525;55.680;37.540;2022-09-01T06:48:52;98753.03;;;20.04;40.65
67727;BME280;54525;55.680;37.540;2022-09-01T06:51:20;98743.53;;;20.01;40.69
67727;BME280;54525;55.680;37.540;2022-09-01T06:53:48;98754.50;;;20.00;40.84
67727;BME280;54525;55.680;37.540;2022-09-01T06:56:17;98750.56;;;19.95;40.69
67727;BME280;54525;55.680;37.540;2022-09-01T06:58:44;98755.28;;;19.93;41.05
67727;BME280;54525;55.680;37.540;2022-09-01T07:01:15;98758.59;;;19.95;40.59
67727;BME280;54525;55.680;37.540;2022-09-01T07:03:43;98757.59;;;19.96;40.51
67727;BME280;54525;55.680;37.540;2022-09-01T07:06:09;98761.09;;;19.97;40.72
67727;BME280;54525;55.680;37.540;2022-09-01T07:08:35;98758.22;;;19.99;40.67
67727;BME280;54525;55.680;37.540;2022-09-01T07:11:07;98750.72;;;19.94;40.65
67727;BME280;54525;55.680;37.540;2022-09-01T07:13:33;98764.59;;;19.97;40.91
67727;BME280;54525;55.680;37.540;2022-09-01T07:16:01;98772.25;;;20.01;40.92
67727;BME280;54525;55.680;37.540;2022-09-01T07:18:30;98754.69;;;19.98;40.80
67727;BME280;54525;55.680;37.540;2022-09-01T07:20:55;98771.00;;;19.96;41.09
67727;BME280;54525;55.680;37.540;2022-09-01T07:23:21;98758.59;;;19.95;41.01
67727;BME280;54525;55.680;37.540;2022-09-01T07:25:50;98769.97;;;19.97;41.06
67727;BME280;54525;55.680;37.540;2022-09-01T07:28:20;98773.47;;;19.98;41.01
67727;BME280;54525;55.680;37.540;2022-09-01T07:30:50;98765.25;;;20.00;40.97
67727;BME280;54525;55.680;37.540;2022-09-01T07:33:19;98759.44;;;20.03;40.63
67727;BME280;54525;55.680;37.540;2022-09-01T07:35:45;98763.59;;;20.05;40.73
67727;BME280;54525;55.680;37.540;2022-09-01T07:38:11;98762.56;;;20.06;40.88
67727;BME280;54525;55.680;37.540;2022-09-01T07:40:39;98761.50;;;20.07;40.69
67727;BME280;54525;55.680;37.540;2022-09-01T07:43:07;98769.38;;;20.09;40.55
67727;BME280;54525;55.680;37.540;2022-09-01T07:45:36;98764.84;;;20.09;40.90
67727;BME280;54525;55.680;37.540;2022-09-01T07:48:07;98769.19;;;20.10;40.93
67727;BME280;54525;55.680;37.540;2022-09-01T07:50:41;98770.66;;;20.13;40.71
67727;BME280;54525;55.680;37.540;2022-09-01T07:53:15;98764.25;;;20.14;40.86
67727;BME280;54525;55.680;37.540;2022-09-01T07:55:46;98778.09;;;20.18;41.22
67727;BME280;54525;55.680;37.540;2022-09-01T07:58:14;98764.28;;;20.21;40.47
67727;BME280;54525;55.680;37.540;2022-09-01T08:00:40;98773.56;;;20.25;40.52
67727;BME280;54525;55.680;37.540;2022-09-01T08:03:11;98781.22;;;20.28;40.41
67727;BME280;54525;55.680;37.540;2022-09-01T08:05:37;98765.31;;;20.33;40.67
67727;BME280;54525;55.680;37.540;2022-09-01T08:08:03;98781.88;;;20.43;40.46
67727;BME280;54525;55.680;37.540;2022-09-01T08:10:29;98760.78;;;20.47;40.16
67727;BME280;54525;55.680;37.540;2022-09-01T08:12:55;98771.97;;;20.51;40.12
67727;BME280;54525;55.680;37.540;2022-09-01T08:15:21;98769.88;;;20.53;39.53
67727;BME280;54525;55.680;37.540;2022-09-01T08:17:46;98772.78;;;20.51;39.94
67727;BME280;54525;55.680;37.540;2022-09-01T08:20:12;98774.44;;;20.52;40.10
67727;BME280;54525;55.680;37.540;2022-09-01T08:22:38;98765.53;;;20.52;40.13
67727;BME280;54525;55.680;37.540;2022-09-01T08:25:08;98768.44;;;20.50;40.13
67727;BME280;54525;55.680;37.540;2022-09-01T08:27:35;98766.38;;;20.52;40.46
67727;BME280;54525;55.680;37.540;2022-09-01T08:30:05;98776.53;;;20.57;40.43
67727;BME280;54525;55.680;37.540;2022-09-01T08:32:32;98773.84;;;20.64;40.56
67727;BME280;54525;55.680;37.540;2022-09-01T08:34:58;98771.16;;;20.70;40.51
67727;BME280;54525;55.680;37.540;2022-09-01T08:37:23;98789.38;;;20.75;40.67
67727;BME280;54525;55.680;37.540;2022-09-01T08:39:50;98793.09;;;20.81;40.54
67727;BME280;54525;55.680;37.540;2022-09-01T08:45:00;98781.94;;;20.84;40.48
67727;BME280;54525;55.680;37.540;2022-09-01T08:47:27;98792.69;;;20.84;40.68
67727;BME280;54525;55.680;37.540;2022-09-01T08:49:54;98786.91;;;20.87;40.67
67727;BME280;54525;55.680;37.540;2022-09-01T08:52:44;98786.69;;;20.88;40.47
67727;BME280;54525;55.680;37.540;2022-09-01T08:55:19;98794.56;;;20.90;40.58
67727;BME280;54525;55.680;37.540;2022-09-01T08:57:50;98790.84;;;20.91;40.60
67727;BME280;54525;55.680;37.540;2022-09-01T09:00:18;98801.19;;;20.94;40.62
67727;BME280;54525;55.680;37.540;2022-09-01T09:03:12;98793.13;;;20.94;40.40
67727;BME280;54525;55.680;37.540;2022-09-01T09:06:09;98801.78;;;20.96;40.68
67727;BME280;54525;55.680;37.540;2022-09-01T09:08:51;98797.03;;;20.98;40.73
67727;BME280;54525;55.680;37.540;2022-09-01T09:16:34;98809.66;;;21.04;40.72
67727;BME280;54525;55.680;37.540;2022-09-01T09:19:07;98803.25;;;21.06;40.70
67727;BME280;54525;55.680;37.540;2022-09-01T09:21:43;98806.56;;;21.08;40.82
67727;BME280;54525;55.680;37.540;2022-09-01T09:24:15;98803.44;;;21.11;40.74
67727;BME280;54525;55.680;37.540;2022-09-01T09:26:50;98811.94;;;21.14;40.71
67727;BME280;54525;55.680;37.540;2022-09-01T09:29:16;98814.63;;;21.14;40.57
67727;BME280;54525;55.680;37.540;2022-09-01T09:31:42;98815.88;;;21.12;40.36
67727;BME280;54525;55.680;37.540;2022-09-01T09:36:48;98828.28;;;21.06;39.67
67727;BME280;54525;55.680;37.540;2022-09-01T09:39:16;98822.09;;;20.99;39.88
67727;BME280;54525;55.680;37.540;2022-09-01T09:41:43;98827.47;;;20.99;39.81
67727;BME280;54525;55.680;37.540;2022-09-01T09:44:28;98820.63;;;20.96;39.24
67727;BME280;54525;55.680;37.540;2022-09-01T09:46:55;98820.63;;;20.96;39.41
67727;BME280;54525;55.680;37.540;2022-09-01T09:49:27;98821.69;;;20.95;39.69
67727;BME280;54525;55.680;37.540;2022-09-01T09:54:35;98830.16;;;21.06;40.69
67727;BME280;54525;55.680;37.540;2022-09-01T09:59:34;98833.47;;;21.08;40.97
67727;BME280;54525;55.680;37.540;2022-09-01T10:02:15;98840.69;;;21.14;40.81
67727;BME280;54525;55.680;37.540;2022-09-01T10:04:42;98839.47;;;21.16;40.77
67727;BME280;54525;55.680;37.540;2022-09-01T10:07:33;98838.22;;;21.19;40.68
67727;BME280;54525;55.680;37.540;2022-09-01T10:12:52;98844.63;;;21.18;40.36
67727;BME280;54525;55.680;37.540;2022-09-01T10:15:20;98841.94;;;21.18;40.26
67727;BME280;54525;55.680;37.540;2022-09-01T10:17:46;98841.31;;;21.23;40.35
67727;BME280;54525;55.680;37.540;2022-09-01T10:20:18;98850.63;;;21.27;40.35
67727;BME280;54525;55.680;37.540;2022-09-01T10:22:48;98843.19;;;21.29;40.33
67727;BME280;54525;55.680;37.540;2022-09-01T10:25:28;98846.50;;;21.31;40.18
67727;BME280;54525;55.680;37.540;2022-09-01T10:28:11;98855.16;;;21.33;39.95
67727;BME280;54525;55.680;37.540;2022-09-01T10:30:42;98854.56;;;21.38;39.90
67727;BME280;54525;55.680;37.540;2022-09-01T10:33:09;98848.34;;;21.37;39.69
67727;BME280;54525;55.680;37.540;2022-09-01T10:35:40;98847.94;;;21.40;39.56
67727;BME280;54525;55.680;37.540;2022-09-01T10:38:10;98847.72;;;21.42;39.26
67727;BME280;54525;55.680;37.540;2022-09-01T10:40:41;98863.66;;;21.43;39.51
67727;BME280;54525;55.680;37.540;2022-09-01T10:43:26;98853.72;;;21.44;38.90
67727;BME280;54525;55.680;37.540;2022-09-01T10:45:54;98857.25;;;21.44;39.00
67727;BME280;54525;55.680;37.540;2022-09-01T10:50:47;98855.78;;;21.42;38.49
67727;BME280;54525;55.680;37.540;2022-09-01T10:59:06;98850.41;;;21.42;37.96
67727;BME280;54525;55.680;37.540;2022-09-01T11:07:03;98848.75;;;21.41;37.36
67727;BME280;54525;55.680;37.540;2022-09-01T11:09:40;98849.78;;;21.40;37.38
67727;BME280;54525;55.680;37.540;2022-09-01T11:12:19;98863.25;;;21.40;37.15
67727;BME280;54525;55.680;37.540;2022-09-01T11:14:53;98862.41;;;21.39;37.02
67727;BME280;54525;55.680;37.540;2022-09-01T11:17:23;98861.00;;;21.30;37.06
67727;BME280;54525;55.680;37.540;2022-09-01T11:25:08;98857.66;;;21.34;36.77
67727;BME280;54525;55.680;37.540;2022-09-01T11:30:21;98846.50;;;21.38;36.44
67727;BME280;54525;55.680;37.540;2022-09-01T11:32:51;98848.16;;;21.39;36.34
67727;BME280;54525;55.680;37.540;2022-09-01T11:35:22;98846.28;;;21.39;36.36
67727;BME280;54525;55.680;37.540;2022-09-01T11:37:52;98848.16;;;21.39;36.30
67727;BME280;54525;55.680;37.540;2022-09-01T11:40:26;98846.28;;;21.39;36.00
67727;BME280;54525;55.680;37.540;2022-09-01T11:42:53;98840.09;;;21.39;36.05
67727;BME280;54525;55.680;37.540;2022-09-01T11:45:26;98853.53;;;21.39;35.85
67727;BME280;54525;55.680;37.540;2022-09-01T11:48:01;98845.47;;;21.39;35.47
67727;BME280;54525;55.680;37.540;2022-09-01T11:50:33;98844.41;;;21.33;35.09
67727;BME280;54525;55.680;37.540;2022-09-01T11:53:06;98831.81;;;21.27;35.34
67727;BME280;54525;55.680;37.540;2022-09-01T11:58:00;98841.94;;;21.25;35.52
67727;BME280;54525;55.680;37.540;2022-09-01T12:00:29;98837.38;;;21.25;35.48
67727;BME280;54525;55.680;37.540;2022-09-01T12:02:56;98839.03;;;21.26;35.46
67727;BME280;54525;55.680;37.540;2022-09-01T12:05:34;98836.16;;;21.28;35.41
67727;BME280;54525;55.680;37.540;2022-09-01T12:08:03;98830.97;;;21.26;35.42
67727;BME280;54525;55.680;37.540;2022-09-01T12:13:16;98833.66;;;21.26;35.22
67727;BME280;54525;55.680;37.540;2022-09-01T12:15:42;98831.19;;;21.25;35.33
67727;BME280;54525;55.680;37.540;2022-09-01T12:18:19;98834.50;;;21.27;35.22
67727;BME280;54525;55.680;37.540;2022-09-01T12:20:48;98822.88;;;21.26;35.28
67727;BME280;54525;55.680;37.540;2022-09-01T12:23:28;98826.44;;;21.27;35.09
67727;BME280;54525;55.680;37.540;2022-09-01T12:25:59;98819.59;;;21.24;34.83
67727;BME280;54525;55.680;37.540;2022-09-01T12:28:27;98815.44;;;21.22;35.08
67727;BME280;54525;55.680;37.540;2022-09-01T12:30:55;98813.59;;;21.22;34.56
67727;BME280;54525;55.680;37.540;2022-09-01T12:33:22;98815.03;;;21.18;34.37
67727;BME280;54525;55.680;37.540;2022-09-01T12:35:49;98814.41;;;21.16;34.43
67727;BME280;54525;55.680;37.540;2022-09-01T12:40:44;98803.88;;;21.14;34.58
67727;BME280;54525;55.680;37.540;2022-09-01T12:43:10;98812.75;;;21.15;34.79
67727;BME280;54525;55.680;37.540;2022-09-01T12:45:50;98810.06;;;21.15;34.94
67727;BME280;54525;55.680;37.540;2022-09-01T12:48:32;98815.84;;;21.18;34.86
67727;BME280;54525;55.680;37.540;2022-09-01T12:51:03;98804.06;;;21.19;34.59
67727;BME280;54525;55.680;37.540;2022-09-01T12:53:32;98815.03;;;21.18;34.25
67727;BME280;54525;55.680;37.540;2022-09-01T12:56:15;98812.75;;;21.15;34.30
67727;BME280;54525;55.680;37.540;2022-09-01T12:58:46;98808.41;;;21.14;34.62
67727;BME280;54525;55.680;37.540;2022-09-01T13:01:24;98801.59;;;21.11;34.23
67727;BME280;54525;55.680;37.540;2022-09-01T13:04:11;98799.72;;;21.12;34.22
67727;BME280;54525;55.680;37.540;2022-09-01T13:06:37;98806.97;;;21.11;34.09
67727;BME280;54525;55.680;37.540;2022-09-01T13:09:03;98794.34;;;21.12;34.20
67727;BME280;54525;55.680;37.540;2022-09-01T13:11:28;98794.34;;;21.12;34.35
67727;BME280;54525;55.680;37.540;2022-09-01T13:13:54;98794.16;;;21.13;34.20
67727;BME280;54525;55.680;37.540;2022-09-01T13:16:19;98799.72;;;21.12;34.09
67727;BME280;54525;55.680;37.540;2022-09-01T13:18:44;98801.38;;;21.13;34.27
67727;BME280;54525;55.680;37.540;2022-09-01T13:21:11;98796.00;;;21.13;34.00
67727;BME280;54525;55.680;37.540;2022-09-01T13:23:38;98798.91;;;21.11;34.05
67727;BME280;54525;55.680;37.540;2022-09-01T13:26:04;98798.28;;;21.09;34.33
67727;BME280;54525;55.680;37.540;2022-09-01T13:28:30;98799.31;;;21.08;34.07
67727;BME280;54525;55.680;37.540;2022-09-01T13:31:01;98793.94;;;21.08;33.92
67727;BME280;54525;55.680;37.540;2022-09-01T13:33:30;98790.63;;;21.06;33.79
67727;BME280;54525;55.680;37.540;2022-09-01T13:35:57;98793.53;;;21.04;33.88
67727;BME280;54525;55.680;37.540;2022-09-01T13:38:23;98791.47;;;21.00;33.87
67727;BME280;54525;55.680;37.540;2022-09-01T13:40:49;98794.97;;;21.00;33.94
67727;BME280;54525;55.680;37.540;2022-09-01T13:43:19;98786.09;;;21.00;34.17
67727;BME280;54525;55.680;37.540;2022-09-01T13:45:45;98791.47;;;21.00;34.41
67727;BME280;54525;55.680;37.540;2022-09-01T13:48:11;98792.28;;;21.00;34.33
67727;BME280;54525;55.680;37.540;2022-09-01T13:50:37;98798.28;;;21.02;34.42